Time;durP1;ratioP1;P1;durP2;ratioP2;P2;SDS_P1;SDS_P2;PMS_P1;PMS_P2;Temp;Humidity;BMP_temperature;BMP_pressure;BME280_temperature;BME280_humidity;BME280_pressure;Samples;Min_cycle;Max_cycle;Signal;HPM_P1;HPM_P2
2021/11/12 00:03:50;;;;;;;32.03;25.13;;;;;;;;;;5060558;28;20178;-56
2021/11/12 00:12:15;;;;;;;36.00;24.15;;;;;;;;;;5059442;28;20187;-56
2021/11/12 00:14:47;;;;;;;34.08;24.67;;;;;;;;;;5058455;28;20220;-57
2021/11/12 00:17:14;;;;;;;34.88;23.63;;;;;;;;;;5059490;28;20585;-57
2021/11/12 00:19:42;;;;;;;36.83;23.83;;;;;;;;;;5061546;28;20306;-57
2021/11/12 00:22:09;;;;;;;36.70;23.85;;;;;;;;;;5060995;28;20207;-56
2021/11/12 00:24:37;;;;;;;42.75;26.55;;;;;;;;;;5062183;28;20243;-56
2021/11/12 00:27:05;;;;;;;36.05;25.83;;;;;;;;;;5059335;28;20208;-56
2021/11/12 00:29:39;;;;;;;35.55;24.35;;;;;;;;;;5057844;28;20204;-56
2021/11/12 00:32:15;;;;;;;39.22;25.55;;;;;;;;;;5056056;28;20196;-57
2021/11/12 00:34:52;;;;;;;36.85;25.67;;;;;;;;;;5056476;28;20226;-57
2021/11/12 00:37:25;;;;;;;34.92;24.70;;;;;;;;;;5056393;28;20553;-56
2021/11/12 00:39:57;;;;;;;39.20;23.92;;;;;;;;;;5056851;28;20207;-56
2021/11/12 00:42:29;;;;;;;35.05;23.35;;;;;;;;;;5057636;28;20195;-57
2021/11/12 00:45:02;;;;;;;34.70;24.95;;;;;;;;;;5056494;28;20670;-57
2021/11/12 00:47:40;;;;;;;35.38;23.85;;;;;;;;;;5057461;28;20562;-55
2021/11/12 00:50:27;;;;;;;39.83;23.98;;;;;;;;;;5057785;28;20189;-58
2021/11/12 00:55:40;;;;;;;35.17;24.38;;;;;;;;;;5057440;28;20219;-57
2021/11/12 00:58:07;;;;;;;35.45;24.25;;;;;;;;;;5057313;28;20208;-57
2021/11/12 01:00:35;;;;;;;36.45;25.88;;;;;;;;;;5057807;28;20295;-58
2021/11/12 01:03:04;;;;;;;39.67;25.90;;;;;;;;;;5058470;28;20203;-56
2021/11/12 01:05:31;;;;;;;34.80;24.73;;;;;;;;;;5058532;28;20639;-55
2021/11/12 01:07:59;;;;;;;38.03;25.50;;;;;;;;;;5059259;28;20691;-56
2021/11/12 01:10:27;;;;;;;38.20;25.23;;;;;;;;;;5058796;28;20196;-56
2021/11/12 01:12:55;;;;;;;33.97;24.70;;;;;;;;;;5058509;28;20216;-56
2021/11/12 01:15:23;;;;;;;32.67;24.70;;;;;;;;;;5057166;28;20311;-59
2021/11/12 01:17:51;;;;;;;34.20;25.52;;;;;;;;;;5056530;28;20575;-56
2021/11/12 01:20:20;;;;;;;36.78;24.83;;;;;;;;;;5056367;28;20310;-56
2021/11/12 01:22:48;;;;;;;35.72;23.70;;;;;;;;;;5055635;28;20695;-56
2021/11/12 01:25:17;;;;;;;39.25;26.13;;;;;;;;;;5055157;28;20231;-57
2021/11/12 01:27:44;;;;;;;31.60;23.58;;;;;;;;;;5055332;28;20676;-57
2021/11/12 01:30:14;;;;;;;35.20;25.65;;;;;;;;;;5055770;28;20224;-56
2021/11/12 01:32:42;;;;;;;38.08;25.45;;;;;;;;;;5055449;28;20676;-56
2021/11/12 01:35:11;;;;;;;38.30;25.27;;;;;;;;;;5055161;28;20220;-56
2021/11/12 01:37:41;;;;;;;35.53;24.60;;;;;;;;;;5055466;28;20239;-57
2021/11/12 01:40:17;;;;;;;34.70;24.00;;;;;;;;;;5055269;28;20272;-58
2021/11/12 01:43:01;;;;;;;39.65;26.52;;;;;;;;;;5055430;28;20208;-57
2021/11/12 01:45:36;;;;;;;38.40;26.40;;;;;;;;;;5054953;28;20228;-58
2021/11/12 01:48:16;;;;;;;43.22;28.90;;;;;;;;;;5054763;28;20190;-58
2021/11/12 01:50:46;;;;;;;40.40;26.90;;;;;;;;;;5054600;28;20185;-58
2021/11/12 01:53:25;;;;;;;35.83;25.63;;;;;;;;;;5054550;28;20204;-57
2021/11/12 01:56:07;;;;;;;40.35;26.60;;;;;;;;;;5054392;28;20199;-56
2021/11/12 01:58:50;;;;;;;38.88;25.73;;;;;;;;;;5054457;28;20184;-56
2021/11/12 02:01:17;;;;;;;41.80;26.42;;;;;;;;;;5053110;28;20581;-55
2021/11/12 02:03:45;;;;;;;40.20;28.08;;;;;;;;;;5054393;28;20220;-57
2021/11/12 02:06:13;;;;;;;36.88;24.90;;;;;;;;;;5054292;28;20203;-58
2021/11/12 02:08:42;;;;;;;39.58;25.50;;;;;;;;;;5054141;28;20220;-57
2021/11/12 02:11:10;;;;;;;36.58;25.05;;;;;;;;;;5053807;28;20207;-56
2021/11/12 02:13:37;;;;;;;39.25;26.00;;;;;;;;;;5054064;28;20281;-57
2021/11/12 02:16:06;;;;;;;40.30;27.75;;;;;;;;;;5053786;28;20293;-57
2021/11/12 02:18:37;;;;;;;39.28;25.20;;;;;;;;;;5054168;28;20232;-57
2021/11/12 02:21:10;;;;;;;39.10;26.55;;;;;;;;;;5053954;28;20211;-57
2021/11/12 02:23:40;;;;;;;40.40;26.25;;;;;;;;;;5053743;28;20711;-57
2021/11/12 02:26:09;;;;;;;40.10;25.02;;;;;;;;;;5054471;28;20548;-57
2021/11/12 02:28:41;;;;;;;42.78;25.67;;;;;;;;;;5054537;28;20213;-57
2021/11/12 02:31:09;;;;;;;37.53;25.00;;;;;;;;;;5054033;28;20688;-54
2021/11/12 02:33:37;;;;;;;40.80;25.52;;;;;;;;;;5055617;28;20213;-57
2021/11/12 02:36:08;;;;;;;37.25;25.85;;;;;;;;;;5055940;28;20696;-56
2021/11/12 02:38:36;;;;;;;35.30;25.95;;;;;;;;;;5056730;28;20190;-57
2021/11/12 02:41:05;;;;;;;38.70;26.80;;;;;;;;;;5056195;28;20262;-56
2021/11/12 02:43:32;;;;;;;36.88;24.65;;;;;;;;;;5057011;28;20212;-57
2021/11/12 02:46:01;;;;;;;38.38;25.48;;;;;;;;;;5056016;28;20204;-59
2021/11/12 02:48:29;;;;;;;36.38;24.90;;;;;;;;;;5055619;28;20205;-57
2021/11/12 02:50:56;;;;;;;37.42;23.67;;;;;;;;;;5057486;28;20199;-54
2021/11/12 02:53:25;;;;;;;36.15;24.65;;;;;;;;;;5056465;28;20208;-58
2021/11/12 02:55:52;;;;;;;35.70;25.25;;;;;;;;;;5055239;28;20548;-58
2021/11/12 02:58:20;;;;;;;33.13;24.50;;;;;;;;;;5054839;28;20557;-56
2021/11/12 03:00:49;;;;;;;39.65;25.80;;;;;;;;;;5053648;28;20350;-58
2021/11/12 03:03:16;;;;;;;38.13;23.73;;;;;;;;;;5053884;28;20204;-57
2021/11/12 03:05:44;;;;;;;38.00;25.05;;;;;;;;;;5053730;28;20622;-58
2021/11/12 03:08:12;;;;;;;35.67;24.50;;;;;;;;;;5053626;28;20212;-58
2021/11/12 03:10:41;;;;;;;38.28;26.23;;;;;;;;;;5053630;28;20202;-57
2021/11/12 03:13:08;;;;;;;37.80;24.50;;;;;;;;;;5053529;28;20204;-57
2021/11/12 03:15:35;;;;;;;35.70;24.40;;;;;;;;;;5053479;28;20229;-57
2021/11/12 03:18:03;;;;;;;35.67;25.25;;;;;;;;;;5052990;28;20211;-57
2021/11/12 03:20:31;;;;;;;36.80;24.55;;;;;;;;;;5053193;28;20214;-58
2021/11/12 03:23:02;;;;;;;37.15;24.83;;;;;;;;;;5053283;28;20213;-58
2021/11/12 03:25:36;;;;;;;32.28;23.90;;;;;;;;;;5052896;28;20327;-57
2021/11/12 03:28:15;;;;;;;37.65;25.55;;;;;;;;;;5053252;28;20190;-58
2021/11/12 03:49:44;;;;;;;32.20;22.75;;;;;;;;;;5053109;28;20226;-56
2021/11/12 03:56:27;;;;;;;37.35;23.30;;;;;;;;;;5052552;28;20190;-57
2021/11/12 04:04:12;;;;;;;33.22;23.42;;;;;;;;;;5052271;28;20236;-57
2021/11/12 04:17:30;;;;;;;34.72;23.83;;;;;;;;;;5091084;28;20267;-57
2021/11/12 04:39:42;;;;;;;41.20;26.77;;;;;;;;;;5050278;28;20194;-58
2021/11/12 05:10:10;;;;;;;29.98;22.45;;;;;;;;;;5007834;28;20219;-58
2021/11/12 05:12:58;;;;;;;30.35;22.52;;;;;;;;;;5007713;28;20229;-57
2021/11/12 05:33:29;;;;;;;31.80;21.60;;;;;;;;;;5036091;28;20274;-58
2021/11/12 05:46:22;;;;;;;29.58;20.80;;;;;;;;;;5011209;28;20204;-59
2021/11/12 05:51:41;;;;;;;30.10;21.88;;;;;;;;;;5035797;28;20192;-57
2021/11/12 05:56:56;;;;;;;30.70;20.33;;;;;;;;;;5035745;28;20593;-55
2021/11/12 05:59:24;;;;;;;32.22;21.90;;;;;;;;;;5035609;28;20209;-58
2021/11/12 06:01:52;;;;;;;35.42;21.35;;;;;;;;;;5035404;28;20247;-59
2021/11/12 06:04:21;;;;;;;31.63;22.33;;;;;;;;;;5035190;28;20206;-59
2021/11/12 06:06:49;;;;;;;34.38;21.90;;;;;;;;;;5034872;28;20259;-59
2021/11/12 06:09:17;;;;;;;32.75;22.83;;;;;;;;;;5035072;28;20216;-59
2021/11/12 06:11:44;;;;;;;31.90;22.92;;;;;;;;;;5035042;28;20212;-57
2021/11/12 06:14:12;;;;;;;32.30;22.92;;;;;;;;;;5035144;28;20215;-59
2021/11/12 06:16:39;;;;;;;32.15;23.02;;;;;;;;;;5034745;28;20211;-58
2021/11/12 06:19:07;;;;;;;31.42;21.85;;;;;;;;;;5034949;28;20697;-59
2021/11/12 06:21:35;;;;;;;36.17;23.77;;;;;;;;;;5034712;28;20220;-58
2021/11/12 06:24:03;;;;;;;33.28;23.80;;;;;;;;;;5034731;28;20579;-58
2021/11/12 06:26:30;;;;;;;36.67;24.65;;;;;;;;;;5034546;28;20207;-58
2021/11/12 06:29:00;;;;;;;38.78;26.02;;;;;;;;;;5034476;28;20231;-59
2021/11/12 06:31:27;;;;;;;40.08;25.25;;;;;;;;;;5033795;28;20291;-57
2021/11/12 06:33:56;;;;;;;37.58;24.98;;;;;;;;;;5034831;28;20226;-59
2021/11/12 06:36:25;;;;;;;43.35;26.67;;;;;;;;;;5034615;28;20203;-58
2021/11/12 06:38:54;;;;;;;40.47;25.23;;;;;;;;;;5035328;28;20200;-57
2021/11/12 06:41:38;;;;;;;39.40;24.55;;;;;;;;;;5035079;28;20669;-57
2021/11/12 06:44:24;;;;;;;40.10;25.02;;;;;;;;;;5034498;28;20191;-57
2021/11/12 06:49:48;;;;;;;37.15;23.90;;;;;;;;;;5034783;28;20187;-58
2021/11/12 06:52:16;;;;;;;33.80;23.17;;;;;;;;;;5034770;28;20225;-58
2021/11/12 06:54:45;;;;;;;40.47;25.75;;;;;;;;;;5034299;28;20825;-57
2021/11/12 06:57:13;;;;;;;44.45;27.55;;;;;;;;;;5034002;28;20581;-58
2021/11/12 06:59:40;;;;;;;42.20;27.90;;;;;;;;;;5033785;28;20215;-58
2021/11/12 07:02:08;;;;;;;45.50;26.00;;;;;;;;;;5034138;28;20230;-58
2021/11/12 07:04:35;;;;;;;42.80;27.70;;;;;;;;;;5033801;28;20199;-56
2021/11/12 07:07:03;;;;;;;42.88;26.35;;;;;;;;;;5032821;28;20204;-57
2021/11/12 07:09:30;;;;;;;40.70;25.38;;;;;;;;;;5034001;28;20205;-58
2021/11/12 07:11:59;;;;;;;38.85;27.73;;;;;;;;;;5033405;28;20237;-57
2021/11/12 07:14:26;;;;;;;37.97;27.08;;;;;;;;;;5033947;28;20212;-57
2021/11/12 07:16:53;;;;;;;38.95;25.48;;;;;;;;;;5033199;28;20601;-58
2021/11/12 07:19:21;;;;;;;39.42;25.80;;;;;;;;;;5033368;28;20215;-57
2021/11/12 07:21:48;;;;;;;37.53;25.33;;;;;;;;;;5033118;28;20562;-57
2021/11/12 07:24:15;;;;;;;37.58;24.75;;;;;;;;;;5033337;28;20185;-57
2021/11/12 07:26:43;;;;;;;37.70;25.23;;;;;;;;;;5033504;28;20233;-57
2021/11/12 07:29:12;;;;;;;42.78;25.38;;;;;;;;;;5033275;28;20222;-56
2021/11/12 07:31:40;;;;;;;41.63;26.17;;;;;;;;;;5033823;28;20361;-57
2021/11/12 07:34:08;;;;;;;40.60;26.02;;;;;;;;;;5033769;28;20211;-58
2021/11/12 07:36:37;;;;;;;35.75;24.33;;;;;;;;;;5033809;28;20253;-57
2021/11/12 07:39:07;;;;;;;38.42;25.80;;;;;;;;;;5033833;28;20284;-57
2021/11/12 07:42:04;;;;;;;39.13;24.67;;;;;;;;;;5034264;28;20189;-56
2021/11/12 07:47:24;;;;;;;35.92;22.42;;;;;;;;;;5024089;28;20208;-58
2021/11/12 07:49:52;;;;;;;31.33;20.50;;;;;;;;;;5034546;28;20230;-58
2021/11/12 07:52:20;;;;;;;32.00;22.42;;;;;;;;;;5034390;28;20227;-58
2021/11/12 07:54:48;;;;;;;30.38;20.67;;;;;;;;;;5033668;28;20204;-58
2021/11/12 07:57:15;;;;;;;33.50;21.45;;;;;;;;;;5034740;28;20207;-58
2021/11/12 07:59:44;;;;;;;27.00;19.40;;;;;;;;;;5034700;28;20208;-58
2021/11/12 08:02:14;;;;;;;29.60;20.30;;;;;;;;;;5033969;28;20226;-58
2021/11/12 08:04:42;;;;;;;28.80;19.30;;;;;;;;;;5032949;28;20283;-58
2021/11/12 08:07:10;;;;;;;26.85;19.30;;;;;;;;;;5032711;28;20605;-58
2021/11/12 08:09:40;;;;;;;25.55;18.40;;;;;;;;;;5032718;28;20229;-57
2021/11/12 08:12:10;;;;;;;27.15;17.55;;;;;;;;;;5032609;28;20687;-57
2021/11/12 08:14:40;;;;;;;24.80;18.25;;;;;;;;;;5034137;28;20238;-57
2021/11/12 08:17:18;;;;;;;24.85;17.33;;;;;;;;;;5033621;28;20279;-57
2021/11/12 08:19:48;;;;;;;20.98;14.90;;;;;;;;;;5033336;28;20634;-56
2021/11/12 08:22:18;;;;;;;21.00;15.30;;;;;;;;;;5032799;28;20231;-56
2021/11/12 08:24:50;;;;;;;21.10;14.75;;;;;;;;;;5033568;28;20191;-59
2021/11/12 08:30:17;;;;;;;19.23;13.32;;;;;;;;;;5031441;28;20669;-58
2021/11/12 08:33:00;;;;;;;16.90;12.55;;;;;;;;;;5032884;28;20716;-58
2021/11/12 08:35:40;;;;;;;14.75;11.95;;;;;;;;;;5033197;28;20246;-58
2021/11/12 08:38:14;;;;;;;16.10;11.57;;;;;;;;;;5033424;28;20192;-58
2021/11/12 08:40:53;;;;;;;16.75;12.15;;;;;;;;;;5033071;28;20209;-58
2021/11/12 08:43:24;;;;;;;12.48;9.85;;;;;;;;;;5032384;28;20227;-57
2021/11/12 08:46:04;;;;;;;11.40;9.20;;;;;;;;;;5032432;28;20193;-58
2021/11/12 08:48:40;;;;;;;15.35;9.93;;;;;;;;;;5032539;28;20213;-57
2021/11/12 08:51:12;;;;;;;13.05;10.25;;;;;;;;;;5033007;28;20207;-57
2021/11/12 08:53:40;;;;;;;10.18;8.70;;;;;;;;;;5033320;28;20228;-58
2021/11/12 08:56:12;;;;;;;10.10;8.90;;;;;;;;;;5036194;28;20300;-57
2021/11/12 08:58:40;;;;;;;10.73;7.63;;;;;;;;;;5036099;28;20190;-58
2021/11/12 09:01:07;;;;;;;8.73;7.30;;;;;;;;;;5036902;28;20510;-57
2021/11/12 09:03:36;;;;;;;8.88;7.43;;;;;;;;;;5036339;28;20487;-57
2021/11/12 09:06:04;;;;;;;8.20;7.30;;;;;;;;;;5036569;28;20287;-57
2021/11/12 09:08:32;;;;;;;6.50;5.28;;;;;;;;;;5036514;28;20221;-58
2021/11/12 09:11:00;;;;;;;6.50;5.15;;;;;;;;;;5036217;28;20209;-57
2021/11/12 09:13:30;;;;;;;5.70;4.88;;;;;;;;;;5036850;28;20253;-58
2021/11/12 09:16:02;;;;;;;3.85;3.40;;;;;;;;;;5035658;28;20560;-59
2021/11/12 09:18:30;;;;;;;3.80;2.53;;;;;;;;;;5036111;28;20189;-58
2021/11/12 09:20:59;;;;;;;3.67;2.95;;;;;;;;;;5036033;28;20205;-58
2021/11/12 09:23:26;;;;;;;4.18;2.80;;;;;;;;;;5035171;28;20235;-57
2021/11/12 09:25:54;;;;;;;3.28;2.95;;;;;;;;;;5035944;28;20211;-57
2021/11/12 09:28:21;;;;;;;2.60;2.10;;;;;;;;;;5035711;28;20236;-57
2021/11/12 09:30:48;;;;;;;2.95;2.20;;;;;;;;;;5035375;28;20205;-60
2021/11/12 09:33:16;;;;;;;2.92;2.40;;;;;;;;;;5035683;28;20224;-60
2021/11/12 09:35:43;;;;;;;2.30;2.10;;;;;;;;;;5035462;28;20678;-60
2021/11/12 09:38:12;;;;;;;2.40;2.20;;;;;;;;;;5035339;28;20195;-59
2021/11/12 09:40:40;;;;;;;2.35;2.15;;;;;;;;;;5035608;28;20217;-59
2021/11/12 09:43:07;;;;;;;3.22;2.90;;;;;;;;;;5035446;28;20247;-58
2021/11/12 09:45:34;;;;;;;3.55;2.20;;;;;;;;;;5036239;28;20304;-59
2021/11/12 09:48:02;;;;;;;2.40;1.90;;;;;;;;;;5035126;28;20613;-59
2021/11/12 09:50:30;;;;;;;5.30;2.30;;;;;;;;;;5035279;28;20216;-59
2021/11/12 09:52:59;;;;;;;3.63;2.70;;;;;;;;;;5035352;28;20843;-61
2021/11/12 09:55:28;;;;;;;2.70;2.20;;;;;;;;;;5035430;28;20452;-60
2021/11/12 09:57:56;;;;;;;3.40;3.10;;;;;;;;;;5034758;28;20966;-59
2021/11/12 10:00:25;;;;;;;2.60;2.40;;;;;;;;;;5035374;28;20530;-59
2021/11/12 10:02:53;;;;;;;3.40;2.90;;;;;;;;;;5034786;28;20514;-59
2021/11/12 10:05:32;;;;;;;4.07;2.97;;;;;;;;;;5034837;28;20498;-60
2021/11/12 10:08:00;;;;;;;3.40;2.20;;;;;;;;;;5035021;28;20432;-60
2021/11/12 10:10:28;;;;;;;2.77;2.57;;;;;;;;;;5034682;28;20464;-59
2021/11/12 10:12:57;;;;;;;2.90;2.27;;;;;;;;;;5034861;28;20490;-59
2021/11/12 10:15:28;;;;;;;5.23;2.70;;;;;;;;;;5035561;28;20448;-59
2021/11/12 10:18:05;;;;;;;2.63;2.40;;;;;;;;;;5035236;28;20429;-59
2021/11/12 10:20:33;;;;;;;2.50;2.30;;;;;;;;;;5034688;28;20437;-60
2021/11/12 10:23:00;;;;;;;3.50;3.17;;;;;;;;;;5058584;22;20506;-63
2021/11/12 10:25:29;;;;;;;2.57;2.37;;;;;;;;;;5034958;28;20475;-64
2021/11/12 10:27:56;;;;;;;2.53;2.20;;;;;;;;;;5034571;28;20461;-63
2021/11/12 10:30:28;;;;;;;3.60;2.70;;;;;;;;;;5034285;28;20499;-62
2021/11/12 10:32:59;;;;;;;2.63;2.40;;;;;;;;;;5034724;28;20469;-65
2021/11/12 10:35:28;;;;;;;2.80;2.20;;;;;;;;;;5035344;28;20437;-63
2021/11/12 10:37:56;;;;;;;2.90;2.60;;;;;;;;;;5035071;28;20480;-63
2021/11/12 10:40:26;;;;;;;2.50;2.30;;;;;;;;;;5035418;28;20449;-63
2021/11/12 10:42:58;;;;;;;3.37;2.97;;;;;;;;;;5035894;28;20563;-62
2021/11/12 10:45:27;;;;;;;4.63;3.03;;;;;;;;;;5035029;28;20442;-62
2021/11/12 10:47:56;;;;;;;3.50;3.00;;;;;;;;;;5034663;28;20452;-65
2021/11/12 10:50:28;;;;;;;3.77;3.37;;;;;;;;;;5034516;28;20484;-63
2021/11/12 10:52:58;;;;;;;3.73;3.20;;;;;;;;;;5034439;28;20483;-62
2021/11/12 10:55:26;;;;;;;5.67;3.90;;;;;;;;;;5034159;28;20449;-63
2021/11/12 10:57:56;;;;;;;3.83;3.43;;;;;;;;;;5034120;28;20462;-63
2021/11/12 11:00:24;;;;;;;4.17;3.70;;;;;;;;;;5034694;28;20523;-63
2021/11/12 11:02:53;;;;;;;4.73;4.23;;;;;;;;;;5034181;28;20475;-62
2021/11/12 11:05:22;;;;;;;4.50;4.00;;;;;;;;;;5034104;28;20453;-63
2021/11/12 11:07:53;;;;;;;10.07;4.70;;;;;;;;;;5034790;28;20536;-62
2021/11/12 11:10:27;;;;;;;5.57;4.43;;;;;;;;;;5034099;28;20507;-63
2021/11/12 11:12:56;;;;;;;4.60;4.20;;;;;;;;;;5033881;28;21003;-62
2021/11/12 11:15:24;;;;;;;6.97;5.30;;;;;;;;;;5034296;28;20447;-63
2021/11/12 11:18:07;;;;;;;4.90;4.40;;;;;;;;;;5033776;28;20450;-64
2021/11/12 11:20:34;;;;;;;6.20;5.60;;;;;;;;;;5033861;28;20431;-62
2021/11/12 11:23:02;;;;;;;4.60;4.20;;;;;;;;;;5033854;28;20871;-62
2021/11/12 11:25:31;;;;;;;5.00;4.50;;;;;;;;;;5033585;28;20970;-63
2021/11/12 11:28:02;;;;;;;7.40;5.03;;;;;;;;;;5033548;28;20454;-63
2021/11/12 11:30:30;;;;;;;6.00;5.40;;;;;;;;;;5034337;28;20526;-62
2021/11/12 11:32:57;;;;;;;7.07;6.37;;;;;;;;;;5033680;28;20503;-63
2021/11/12 11:35:28;;;;;;;5.53;5.03;;;;;;;;;;5033767;28;20459;-63
2021/11/12 11:37:55;;;;;;;8.47;6.00;;;;;;;;;;5034844;28;20526;-64
2021/11/12 11:40:23;;;;;;;7.53;6.83;;;;;;;;;;5035136;28;20444;-61
2021/11/12 11:42:52;;;;;;;8.00;7.20;;;;;;;;;;5034274;28;20475;-64
2021/11/12 11:45:21;;;;;;;9.20;8.20;;;;;;;;;;5034475;28;20637;-63
2021/11/12 11:47:49;;;;;;;9.10;8.20;;;;;;;;;;5033740;28;20442;-62
2021/11/12 11:50:23;;;;;;;10.33;7.13;;;;;;;;;;5033957;28;20487;-63
2021/11/12 11:52:50;;;;;;;14.30;8.33;;;;;;;;;;5033988;28;20480;-63
2021/11/12 11:55:37;;;;;;;9.30;7.93;;;;;;;;;;5033451;28;20437;-63
2021/11/12 11:58:23;;;;;;;9.43;8.43;;;;;;;;;;5034186;28;20453;-62
2021/11/12 12:01:10;;;;;;;11.10;8.30;;;;;;;;;;5036315;28;20462;-63
2021/11/12 12:03:37;;;;;;;8.80;7.90;;;;;;;;;;5039596;28;20475;-63
2021/11/12 12:06:06;;;;;;;9.70;8.60;;;;;;;;;;5041380;28;20459;-63
2021/11/12 12:08:34;;;;;;;12.13;10.00;;;;;;;;;;5041026;28;20448;-62
2021/11/12 12:11:16;;;;;;;15.27;10.17;;;;;;;;;;5041346;28;20559;-63
2021/11/12 12:13:43;;;;;;;11.60;10.40;;;;;;;;;;5037500;28;20480;-62
2021/11/12 12:16:12;;;;;;;12.10;10.60;;;;;;;;;;5041521;28;20429;-63
2021/11/12 12:18:47;;;;;;;12.77;10.87;;;;;;;;;;5041284;28;20920;-61
2021/11/12 12:36:01;;;;;;;17.27;13.90;;;;;;;;;;5037275;28;20434;-64
2021/11/12 13:25:51;;;;;;;18.20;16.30;;;;;;;;;;5031996;28;20443;-60
2021/11/12 13:28:23;;;;;;;21.27;17.07;;;;;;;;;;5046494;28;20523;-63
2021/11/12 13:30:53;;;;;;;19.10;15.93;;;;;;;;;;5040761;28;20491;-62
2021/11/12 13:33:48;;;;;;;19.70;16.75;;;;;;;;;;5038835;28;20465;-62
2021/11/12 13:36:28;;;;;;;19.00;15.40;;;;;;;;;;5003104;28;20288;-62
2021/11/12 13:38:59;;;;;;;18.80;15.33;;;;;;;;;;5037439;28;20421;-63
2021/11/12 13:41:27;;;;;;;29.13;23.70;;;;;;;;;;5035290;28;20432;-63
2021/11/12 13:44:00;;;;;;;21.03;18.70;;;;;;;;;;5035496;28;20491;-63
2021/11/12 13:46:27;;;;;;;30.90;20.13;;;;;;;;;;5035644;28;20444;-61
2021/11/12 13:48:56;;;;;;;20.20;17.33;;;;;;;;;;5035002;28;20976;-62
2021/11/12 13:51:28;;;;;;;17.83;15.63;;;;;;;;;;5035289;28;20458;-62
2021/11/12 13:53:56;;;;;;;21.15;15.57;;;;;;;;;;5035195;28;20480;-63
2021/11/12 13:56:25;;;;;;;21.03;16.37;;;;;;;;;;5035433;28;20225;-63
2021/11/12 13:59:04;;;;;;;17.83;15.73;;;;;;;;;;5035595;28;20803;-61
2021/11/12 14:01:33;;;;;;;17.40;14.40;;;;;;;;;;5035661;28;20425;-63
2021/11/12 14:04:01;;;;;;;18.02;15.38;;;;;;;;;;5035122;28;20228;-62
2021/11/12 14:06:35;;;;;;;18.30;14.52;;;;;;;;;;5035215;28;20207;-62
2021/11/12 14:09:03;;;;;;;16.90;14.48;;;;;;;;;;5035580;28;20264;-62
2021/11/12 14:11:33;;;;;;;21.40;16.00;;;;;;;;;;5034786;28;20205;-63
2021/11/12 14:14:03;;;;;;;26.17;16.38;;;;;;;;;;5034794;28;20221;-62
2021/11/12 14:16:33;;;;;;;19.88;15.90;;;;;;;;;;5035080;28;20201;-62
2021/11/12 14:19:33;;;;;;;20.45;15.82;;;;;;;;;;5035065;28;20188;-63
2021/11/12 14:22:05;;;;;;;16.58;14.77;;;;;;;;;;5034639;28;20212;-63
2021/11/12 14:24:48;;;;;;;20.70;15.40;;;;;;;;;;5034382;28;20233;-63
2021/11/12 14:27:23;;;;;;;19.20;15.10;;;;;;;;;;5035071;28;20446;-62
2021/11/12 14:33:02;;;;;;;19.55;15.70;;;;;;;;;;5034480;28;20234;-62
2021/11/12 14:35:37;;;;;;;19.55;15.13;;;;;;;;;;5033886;28;20649;-62
2021/11/12 14:38:16;;;;;;;18.67;15.35;;;;;;;;;;5034988;28;20186;-63
2021/11/12 14:40:57;;;;;;;20.55;16.60;;;;;;;;;;5034088;28;20221;-61
2021/11/12 14:43:35;;;;;;;21.42;16.25;;;;;;;;;;5034384;28;20224;-63
2021/11/12 14:46:14;;;;;;;23.63;16.38;;;;;;;;;;5034330;28;20225;-62
2021/11/12 14:48:53;;;;;;;22.42;18.75;;;;;;;;;;5035966;28;20224;-62
2021/11/12 14:51:22;;;;;;;20.58;17.13;;;;;;;;;;5034291;28;20699;-62
2021/11/12 14:53:53;;;;;;;19.98;17.55;;;;;;;;;;5034121;28;20229;-63
2021/11/12 14:56:22;;;;;;;22.98;18.02;;;;;;;;;;5034907;28;20597;-62
2021/11/12 14:58:55;;;;;;;23.38;18.85;;;;;;;;;;5034145;28;20212;-62
2021/11/12 15:01:24;;;;;;;18.25;15.68;;;;;;;;;;5034010;28;20599;-63
2021/11/12 15:03:51;;;;;;;20.30;17.55;;;;;;;;;;5034078;28;20219;-62
2021/11/12 15:06:21;;;;;;;22.55;17.17;;;;;;;;;;5034095;28;20204;-63
2021/11/12 15:08:51;;;;;;;20.98;16.33;;;;;;;;;;5034643;28;20212;-61
2021/11/12 15:11:20;;;;;;;23.50;18.02;;;;;;;;;;5034599;28;20250;-63
2021/11/12 15:13:49;;;;;;;21.45;18.27;;;;;;;;;;5035005;28;20228;-63
2021/11/12 15:16:20;;;;;;;23.05;17.63;;;;;;;;;;5035148;28;20354;-62
2021/11/12 15:18:48;;;;;;;23.08;17.85;;;;;;;;;;5034099;28;20192;-61
2021/11/12 15:21:21;;;;;;;24.85;18.70;;;;;;;;;;5033986;28;20238;-62
2021/11/12 15:24:00;;;;;;;21.13;17.48;;;;;;;;;;5033545;28;20301;-62
2021/11/12 15:26:50;;;;;;;19.13;16.25;;;;;;;;;;5033721;28;20207;-62
2021/11/12 15:29:19;;;;;;;21.60;17.05;;;;;;;;;;5033735;28;20258;-62
2021/11/12 15:31:57;;;;;;;22.55;18.52;;;;;;;;;;5033494;28;20195;-62
2021/11/12 15:34:26;;;;;;;21.30;17.30;;;;;;;;;;5033440;28;20760;-61
2021/11/12 15:37:00;;;;;;;21.02;16.63;;;;;;;;;;5033801;28;20291;-62
2021/11/12 15:39:36;;;;;;;22.20;18.25;;;;;;;;;;5035211;28;20191;-63
2021/11/12 15:44:52;;;;;;;24.98;18.73;;;;;;;;;;5034707;28;20689;-62
2021/11/12 15:47:23;;;;;;;33.78;23.90;;;;;;;;;;5033047;28;20194;-63
2021/11/12 15:49:55;;;;;;;24.08;20.33;;;;;;;;;;5033083;28;20243;-61
2021/11/12 15:52:24;;;;;;;30.27;19.95;;;;;;;;;;5033098;28;20197;-62
2021/11/12 15:55:02;;;;;;;24.92;19.23;;;;;;;;;;5034272;28;20204;-62
2021/11/12 16:11:50;;;;;;;27.60;18.95;;;;;;;;;;5025853;28;20233;-62
2021/11/12 16:14:19;;;;;;;23.33;18.98;;;;;;;;;;5033408;28;20237;-61
2021/11/12 16:17:14;;;;;;;23.80;18.13;;;;;;;;;;5032820;28;20673;-62
2021/11/12 16:19:47;;;;;;;23.08;18.58;;;;;;;;;;5033794;28;20561;-62
2021/11/12 16:25:09;;;;;;;25.30;19.50;;;;;;;;;;5068442;22;20268;-58
2021/11/12 16:27:40;;;;;;;22.83;18.23;;;;;;;;;;5012656;28;20212;-59
2021/11/12 16:30:08;;;;;;;27.23;20.40;;;;;;;;;;5012945;28;20209;-57
2021/11/12 16:32:42;;;;;;;24.73;19.73;;;;;;;;;;5012472;28;20681;-57
2021/11/12 16:35:13;;;;;;;24.85;19.92;;;;;;;;;;5012645;28;20348;-58
2021/11/12 16:37:40;;;;;;;24.30;19.50;;;;;;;;;;5013209;28;20192;-58
2021/11/12 16:40:12;;;;;;;27.90;21.45;;;;;;;;;;5012607;28;20569;-56
2021/11/12 16:42:56;;;;;;;23.77;19.55;;;;;;;;;;5012998;28;20196;-58
2021/11/12 16:45:34;;;;;;;25.15;20.13;;;;;;;;;;5012553;28;20257;-58
2021/11/12 16:48:08;;;;;;;25.27;20.85;;;;;;;;;;5012663;28;20638;-59
2021/11/12 16:50:51;;;;;;;27.13;20.17;;;;;;;;;;5012386;28;20699;-58
2021/11/12 16:58:57;;;;;;;26.70;20.23;;;;;;;;;;5012446;28;20216;-58
2021/11/12 17:01:53;;;;;;;27.92;19.83;;;;;;;;;;5012579;28;20567;-59
2021/11/12 17:04:28;;;;;;;25.80;21.15;;;;;;;;;;5012816;28;20311;-58
2021/11/12 17:07:00;;;;;;;23.50;18.50;;;;;;;;;;5012804;28;20295;-58
2021/11/12 17:09:46;;;;;;;28.20;21.17;;;;;;;;;;5012479;28;20194;-58
2021/11/12 17:12:28;;;;;;;26.65;19.55;;;;;;;;;;5012209;28;20652;-58
2021/11/12 17:15:15;;;;;;;29.05;23.10;;;;;;;;;;5013164;28;20659;-56
2021/11/12 17:48:31;;;;;;;28.08;21.25;;;;;;;;;;5015854;28;20225;-58
2021/11/12 17:51:10;;;;;;;30.20;21.92;;;;;;;;;;5015740;28;20634;-57
2021/11/12 18:02:03;;;;;;;30.52;21.20;;;;;;;;;;5015024;28;20178;-57
2021/11/12 18:04:39;;;;;;;25.40;20.63;;;;;;;;;;5015979;28;20234;-58
2021/11/12 18:07:23;;;;;;;27.20;19.85;;;;;;;;;;5015244;28;20275;-58
2021/11/12 18:10:14;;;;;;;29.52;20.58;;;;;;;;;;5015022;28;20200;-58
2021/11/12 21:44:46;;;;;;;29.13;21.02;;;;;;;;;;5093781;28;20199;-57
2021/11/12 21:47:14;;;;;;;27.20;21.85;;;;;;;;;;5093561;28;20704;-57
2021/11/12 21:49:41;;;;;;;30.50;22.90;;;;;;;;;;5093961;28;20206;-57
2021/11/12 21:52:08;;;;;;;29.88;22.23;;;;;;;;;;5093415;28;20210;-57
2021/11/12 21:54:37;;;;;;;33.22;21.42;;;;;;;;;;5093548;28;20205;-57
2021/11/12 21:57:04;;;;;;;28.42;21.83;;;;;;;;;;5093322;28;20228;-58
2021/11/12 21:59:32;;;;;;;29.25;21.65;;;;;;;;;;5093103;28;20674;-57
2021/11/12 22:02:00;;;;;;;29.25;21.85;;;;;;;;;;5093718;28;20205;-57
2021/11/12 22:04:27;;;;;;;27.20;20.48;;;;;;;;;;5093316;28;20206;-57
2021/11/12 22:06:55;;;;;;;27.95;21.15;;;;;;;;;;5093247;28;20740;-57
2021/11/12 22:09:22;;;;;;;26.85;20.10;;;;;;;;;;5093508;28;20231;-57
2021/11/12 22:11:51;;;;;;;28.88;20.58;;;;;;;;;;5093519;28;20203;-57
2021/11/12 22:14:19;;;;;;;26.13;19.73;;;;;;;;;;5093155;28;20207;-57
2021/11/12 22:16:46;;;;;;;26.05;19.58;;;;;;;;;;5093281;28;20232;-57
2021/11/12 22:19:13;;;;;;;29.48;21.30;;;;;;;;;;5093263;28;20201;-57
2021/11/12 22:21:40;;;;;;;26.63;19.48;;;;;;;;;;5093372;28;20198;-56
2021/11/12 22:24:08;;;;;;;25.50;19.70;;;;;;;;;;5092939;28;20209;-58
2021/11/12 22:26:35;;;;;;;25.98;19.67;;;;;;;;;;5083379;22;20290;-61
2021/11/12 22:29:05;;;;;;;25.58;20.15;;;;;;;;;;5034201;28;20587;-61
2021/11/12 22:31:32;;;;;;;28.30;18.67;;;;;;;;;;5033863;28;20686;-61
2021/11/12 22:33:59;;;;;;;29.10;20.83;;;;;;;;;;5034570;28;20207;-62
2021/11/12 22:36:27;;;;;;;28.23;20.10;;;;;;;;;;5034415;28;20234;-61
2021/11/12 22:38:54;;;;;;;26.95;20.35;;;;;;;;;;5034666;28;20207;-62
2021/11/12 22:41:21;;;;;;;26.08;18.95;;;;;;;;;;5034411;28;20688;-62
2021/11/12 22:43:58;;;;;;;27.67;20.95;;;;;;;;;;5034327;28;20211;-61
2021/11/12 22:46:28;;;;;;;29.83;22.17;;;;;;;;;;5033179;28;20586;-61
2021/11/12 22:48:55;;;;;;;26.02;20.30;;;;;;;;;;5034113;28;20199;-62